sensor_id;sensor_type;location;lat;lon;timestamp;P1;durP1;ratioP1;P2;durP2;ratioP2
26478;SDS011;14163;-26.142;27.992;2024-02-15T00:00:48;20.47;;;18.37;;
26478;SDS011;14163;-26.142;27.992;2024-02-15T00:03:20;21.30;;;19.13;;
26478;SDS011;14163;-26.142;27.992;2024-02-15T00:05:50;20.17;;;18.40;;
26478;SDS011;14163;-26.142;27.992;2024-02-15T00:08:20;20.57;;;18.67;;
26478;SDS011;14163;-26.142;27.992;2024-02-15T00:10:50;19.67;;;17.87;;
26478;SDS011;14163;-26.142;27.992;2024-02-15T00:13:19;21.67;;;18.10;;
26478;SDS011;14163;-26.142;27.992;2024-02-15T00:15:49;24.23;;;19.07;;
26478;SDS011;14163;-26.142;27.992;2024-02-15T00:18:18;20.77;;;18.40;;
26478;SDS011;14163;-26.142;27.992;2024-02-15T00:20:49;23.43;;;19.87;;
26478;SDS011;14163;-26.142;27.992;2024-02-15T00:23:18;20.83;;;18.87;;
26478;SDS011;14163;-26.142;27.992;2024-02-15T00:25:47;20.03;;;18.23;;
26478;SDS011;14163;-26.142;27.992;2024-02-15T00:28:16;18.63;;;16.77;;
26478;SDS011;14163;-26.142;27.992;2024-02-15T00:30:45;20.13;;;18.20;;
26478;SDS011;14163;-26.142;27.992;2024-02-15T00:33:15;20.30;;;18.20;;
26478;SDS011;14163;-26.142;27.992;2024-02-15T00:35:45;20.07;;;18.17;;
26478;SDS011;14163;-26.142;27.992;2024-02-15T00:38:16;20.73;;;17.67;;
26478;SDS011;14163;-26.142;27.992;2024-02-15T00:40:45;18.27;;;16.63;;
26478;SDS011;14163;-26.142;27.992;2024-02-15T00:43:14;20.30;;;18.30;;
26478;SDS011;14163;-26.142;27.992;2024-02-15T00:45:43;19.83;;;17.90;;
26478;SDS011;14163;-26.142;27.992;2024-02-15T00:48:12;21.50;;;19.60;;
26478;SDS011;14163;-26.142;27.992;2024-02-15T00:50:42;20.50;;;18.60;;
26478;SDS011;14163;-26.142;27.992;2024-02-15T00:53:12;21.53;;;19.23;;
26478;SDS011;14163;-26.142;27.992;2024-02-15T00:55:42;22.00;;;19.80;;
26478;SDS011;14163;-26.142;27.992;2024-02-15T00:58:11;21.83;;;19.70;;
26478;SDS011;14163;-26.142;27.992;2024-02-15T01:00:40;24.73;;;20.57;;
26478;SDS011;14163;-26.142;27.992;2024-02-15T01:03:10;20.90;;;19.03;;
26478;SDS011;14163;-26.142;27.992;2024-02-15T01:05:39;22.70;;;19.87;;
26478;SDS011;14163;-26.142;27.992;2024-02-15T01:08:08;21.70;;;19.00;;
26478;SDS011;14163;-26.142;27.992;2024-02-15T01:10:40;21.60;;;19.37;;
26478;SDS011;14163;-26.142;27.992;2024-02-15T01:13:09;19.20;;;17.40;;
26478;SDS011;14163;-26.142;27.992;2024-02-15T01:15:38;28.97;;;19.03;;
26478;SDS011;14163;-26.142;27.992;2024-02-15T01:18:07;20.10;;;18.00;;
26478;SDS011;14163;-26.142;27.992;2024-02-15T01:20:37;19.83;;;17.77;;
26478;SDS011;14163;-26.142;27.992;2024-02-15T01:23:06;17.83;;;16.03;;
26478;SDS011;14163;-26.142;27.992;2024-02-15T01:25:35;18.30;;;16.30;;
26478;SDS011;14163;-26.142;27.992;2024-02-15T01:28:07;18.77;;;16.83;;
26478;SDS011;14163;-26.142;27.992;2024-02-15T01:30:36;19.10;;;17.10;;
26478;SDS011;14163;-26.142;27.992;2024-02-15T01:33:06;20.57;;;17.47;;
26478;SDS011;14163;-26.142;27.992;2024-02-15T01:35:35;20.80;;;17.10;;
26478;SDS011;14163;-26.142;27.992;2024-02-15T01:38:04;20.67;;;18.50;;
26478;SDS011;14163;-26.142;27.992;2024-02-15T01:40:34;19.23;;;17.43;;
26478;SDS011;14163;-26.142;27.992;2024-02-15T01:43:03;21.13;;;18.93;;
26478;SDS011;14163;-26.142;27.992;2024-02-15T01:45:34;22.40;;;20.17;;
26478;SDS011;14163;-26.142;27.992;2024-02-15T01:48:04;19.17;;;17.17;;
26478;SDS011;14163;-26.142;27.992;2024-02-15T01:50:34;21.40;;;19.30;;
26478;SDS011;14163;-26.142;27.992;2024-02-15T01:53:03;19.40;;;17.50;;
26478;SDS011;14163;-26.142;27.992;2024-02-15T01:55:34;21.13;;;18.97;;
26478;SDS011;14163;-26.142;27.992;2024-02-15T01:58:05;21.03;;;17.70;;
26478;SDS011;14163;-26.142;27.992;2024-02-15T02:00:36;19.17;;;17.27;;
26478;SDS011;14163;-26.142;27.992;2024-02-15T02:03:06;19.47;;;17.13;;
26478;SDS011;14163;-26.142;27.992;2024-02-15T02:05:38;17.83;;;16.20;;
26478;SDS011;14163;-26.142;27.992;2024-02-15T02:08:08;17.57;;;16.00;;
26478;SDS011;14163;-26.142;27.992;2024-02-15T02:10:37;19.90;;;15.77;;
26478;SDS011;14163;-26.142;27.992;2024-02-15T02:13:07;18.30;;;14.70;;
26478;SDS011;14163;-26.142;27.992;2024-02-15T02:15:38;17.20;;;15.60;;
26478;SDS011;14163;-26.142;27.992;2024-02-15T02:18:08;17.17;;;15.40;;
26478;SDS011;14163;-26.142;27.992;2024-02-15T02:20:37;17.80;;;16.07;;
26478;SDS011;14163;-26.142;27.992;2024-02-15T02:23:07;15.03;;;13.53;;
26478;SDS011;14163;-26.142;27.992;2024-02-15T02:25:41;16.37;;;14.67;;
26478;SDS011;14163;-26.142;27.992;2024-02-15T02:28:15;15.93;;;14.47;;
26478;SDS011;14163;-26.142;27.992;2024-02-15T02:30:44;18.87;;;15.77;;
26478;SDS011;14163;-26.142;27.992;2024-02-15T02:33:13;15.63;;;14.20;;
26478;SDS011;14163;-26.142;27.992;2024-02-15T02:35:44;16.00;;;14.60;;
26478;SDS011;14163;-26.142;27.992;2024-02-15T02:38:13;18.17;;;16.27;;
26478;SDS011;14163;-26.142;27.992;2024-02-15T02:40:44;19.03;;;16.97;;
26478;SDS011;14163;-26.142;27.992;2024-02-15T02:43:13;18.00;;;16.30;;
26478;SDS011;14163;-26.142;27.992;2024-02-15T02:45:42;19.13;;;17.23;;
26478;SDS011;14163;-26.142;27.992;2024-02-15T02:48:12;18.17;;;16.37;;
26478;SDS011;14163;-26.142;27.992;2024-02-15T02:50:43;19.57;;;17.67;;
26478;SDS011;14163;-26.142;27.992;2024-02-15T02:53:12;19.97;;;17.83;;
26478;SDS011;14163;-26.142;27.992;2024-02-15T02:55:41;20.10;;;18.00;;
26478;SDS011;14163;-26.142;27.992;2024-02-15T02:58:12;20.73;;;18.63;;
26478;SDS011;14163;-26.142;27.992;2024-02-15T03:00:41;23.53;;;18.77;;
26478;SDS011;14163;-26.142;27.992;2024-02-15T03:03:10;18.90;;;17.00;;
26478;SDS011;14163;-26.142;27.992;2024-02-15T03:05:39;18.90;;;16.20;;
26478;SDS011;14163;-26.142;27.992;2024-02-15T03:08:08;18.33;;;16.57;;
26478;SDS011;14163;-26.142;27.992;2024-02-15T03:10:38;17.33;;;15.63;;
26478;SDS011;14163;-26.142;27.992;2024-02-15T03:13:10;17.00;;;14.77;;
26478;SDS011;14163;-26.142;27.992;2024-02-15T03:15:40;19.57;;;16.20;;
26478;SDS011;14163;-26.142;27.992;2024-02-15T03:18:09;20.80;;;18.50;;
26478;SDS011;14163;-26.142;27.992;2024-02-15T03:20:39;18.70;;;16.90;;
26478;SDS011;14163;-26.142;27.992;2024-02-15T03:23:08;18.43;;;16.47;;
26478;SDS011;14163;-26.142;27.992;2024-02-15T03:25:37;20.00;;;15.73;;
26478;SDS011;14163;-26.142;27.992;2024-02-15T03:28:06;19.03;;;16.03;;
26478;SDS011;14163;-26.142;27.992;2024-02-15T03:30:37;17.73;;;15.73;;
26478;SDS011;14163;-26.142;27.992;2024-02-15T03:33:06;16.73;;;15.10;;
26478;SDS011;14163;-26.142;27.992;2024-02-15T03:35:35;17.63;;;15.70;;
26478;SDS011;14163;-26.142;27.992;2024-02-15T03:38:05;17.03;;;15.30;;
26478;SDS011;14163;-26.142;27.992;2024-02-15T03:40:34;16.93;;;15.07;;
26478;SDS011;14163;-26.142;27.992;2024-02-15T03:43:07;18.10;;;14.97;;
26478;SDS011;14163;-26.142;27.992;2024-02-15T03:45:38;16.17;;;14.33;;
26478;SDS011;14163;-26.142;27.992;2024-02-15T03:48:10;17.17;;;14.30;;
26478;SDS011;14163;-26.142;27.992;2024-02-15T03:50:40;13.57;;;12.30;;
26478;SDS011;14163;-26.142;27.992;2024-02-15T03:53:09;15.47;;;14.03;;
26478;SDS011;14163;-26.142;27.992;2024-02-15T03:55:39;14.53;;;13.00;;
26478;SDS011;14163;-26.142;27.992;2024-02-15T03:58:08;20.00;;;14.30;;
26478;SDS011;14163;-26.142;27.992;2024-02-15T04:00:42;14.83;;;13.07;;
26478;SDS011;14163;-26.142;27.992;2024-02-15T06:09:40;14.30;;;11.33;;
26478;SDS011;14163;-26.142;27.992;2024-02-15T06:12:09;16.20;;;10.80;;
26478;SDS011;14163;-26.142;27.992;2024-02-15T06:14:39;12.33;;;11.03;;
26478;SDS011;14163;-26.142;27.992;2024-02-15T06:17:09;11.80;;;10.17;;
26478;SDS011;14163;-26.142;27.992;2024-02-15T06:19:38;16.60;;;9.87;;
26478;SDS011;14163;-26.142;27.992;2024-02-15T06:22:08;15.43;;;11.27;;
26478;SDS011;14163;-26.142;27.992;2024-02-15T06:24:39;12.70;;;11.10;;
26478;SDS011;14163;-26.142;27.992;2024-02-15T06:27:08;12.57;;;11.20;;
26478;SDS011;14163;-26.142;27.992;2024-02-15T06:29:38;12.80;;;11.40;;
26478;SDS011;14163;-26.142;27.992;2024-02-15T06:32:24;12.63;;;10.63;;
26478;SDS011;14163;-26.142;27.992;2024-02-15T06:35:09;20.10;;;10.67;;
26478;SDS011;14163;-26.142;27.992;2024-02-15T06:37:55;12.57;;;11.17;;
26478;SDS011;14163;-26.142;27.992;2024-02-15T06:40:42;16.90;;;11.73;;
26478;SDS011;14163;-26.142;27.992;2024-02-15T06:43:12;11.70;;;10.50;;
26478;SDS011;14163;-26.142;27.992;2024-02-15T06:45:42;15.50;;;11.70;;
26478;SDS011;14163;-26.142;27.992;2024-02-15T06:48:12;14.13;;;12.57;;
26478;SDS011;14163;-26.142;27.992;2024-02-15T06:50:42;20.77;;;14.00;;
26478;SDS011;14163;-26.142;27.992;2024-02-15T06:53:11;13.50;;;12.10;;
26478;SDS011;14163;-26.142;27.992;2024-02-15T06:55:42;14.67;;;13.00;;
26478;SDS011;14163;-26.142;27.992;2024-02-15T06:58:12;16.00;;;13.47;;
26478;SDS011;14163;-26.142;27.992;2024-02-15T07:00:42;14.10;;;12.70;;
26478;SDS011;14163;-26.142;27.992;2024-02-15T07:03:11;14.37;;;12.93;;
26478;SDS011;14163;-26.142;27.992;2024-02-15T07:05:42;15.93;;;13.30;;
26478;SDS011;14163;-26.142;27.992;2024-02-15T07:08:11;17.77;;;13.90;;
26478;SDS011;14163;-26.142;27.992;2024-02-15T07:10:42;15.50;;;13.90;;
26478;SDS011;14163;-26.142;27.992;2024-02-15T07:13:11;15.30;;;12.47;;
26478;SDS011;14163;-26.142;27.992;2024-02-15T07:15:40;14.10;;;12.70;;
26478;SDS011;14163;-26.142;27.992;2024-02-15T07:18:10;14.00;;;12.60;;
26478;SDS011;14163;-26.142;27.992;2024-02-15T07:20:45;19.30;;;13.80;;
26478;SDS011;14163;-26.142;27.992;2024-02-15T07:23:14;17.03;;;13.23;;
26478;SDS011;14163;-26.142;27.992;2024-02-15T07:25:45;14.37;;;12.87;;
26478;SDS011;14163;-26.142;27.992;2024-02-15T07:28:16;20.60;;;12.33;;
26478;SDS011;14163;-26.142;27.992;2024-02-15T07:30:46;13.30;;;11.90;;
26478;SDS011;14163;-26.142;27.992;2024-02-15T07:33:16;14.90;;;12.27;;
26478;SDS011;14163;-26.142;27.992;2024-02-15T07:35:46;15.20;;;11.60;;
26478;SDS011;14163;-26.142;27.992;2024-02-15T07:38:16;12.40;;;11.20;;
26478;SDS011;14163;-26.142;27.992;2024-02-15T07:40:50;14.63;;;13.00;;
26478;SDS011;14163;-26.142;27.992;2024-02-15T07:43:19;16.80;;;12.10;;
26478;SDS011;14163;-26.142;27.992;2024-02-15T07:45:49;13.07;;;11.67;;
26478;SDS011;14163;-26.142;27.992;2024-02-15T07:48:18;19.57;;;12.10;;
26478;SDS011;14163;-26.142;27.992;2024-02-15T07:50:47;13.30;;;11.97;;
26478;SDS011;14163;-26.142;27.992;2024-02-15T07:53:16;12.40;;;10.83;;
26478;SDS011;14163;-26.142;27.992;2024-02-15T07:55:46;14.40;;;11.07;;
26478;SDS011;14163;-26.142;27.992;2024-02-15T07:58:18;14.23;;;12.03;;
26478;SDS011;14163;-26.142;27.992;2024-02-15T08:00:48;14.20;;;12.63;;
26478;SDS011;14163;-26.142;27.992;2024-02-15T08:03:17;17.07;;;12.40;;
26478;SDS011;14163;-26.142;27.992;2024-02-15T08:05:46;16.30;;;12.23;;
26478;SDS011;14163;-26.142;27.992;2024-02-15T08:08:18;14.80;;;10.53;;
26478;SDS011;14163;-26.142;27.992;2024-02-15T08:10:48;13.33;;;11.93;;
26478;SDS011;14163;-26.142;27.992;2024-02-15T08:13:19;16.40;;;13.10;;
26478;SDS011;14163;-26.142;27.992;2024-02-15T08:15:53;12.93;;;11.63;;
26478;SDS011;14163;-26.142;27.992;2024-02-15T08:18:23;13.53;;;11.90;;
26478;SDS011;14163;-26.142;27.992;2024-02-15T08:20:53;13.03;;;11.93;;
26478;SDS011;14163;-26.142;27.992;2024-02-15T08:23:22;13.30;;;11.90;;
26478;SDS011;14163;-26.142;27.992;2024-02-15T08:25:52;15.10;;;12.03;;
26478;SDS011;14163;-26.142;27.992;2024-02-15T08:28:25;14.43;;;12.20;;
26478;SDS011;14163;-26.142;27.992;2024-02-15T08:30:55;15.17;;;12.60;;
26478;SDS011;14163;-26.142;27.992;2024-02-15T08:33:24;19.13;;;11.43;;
26478;SDS011;14163;-26.142;27.992;2024-02-15T08:35:54;14.47;;;12.83;;
26478;SDS011;14163;-26.142;27.992;2024-02-15T08:38:24;13.43;;;11.80;;
26478;SDS011;14163;-26.142;27.992;2024-02-15T08:40:53;14.47;;;11.83;;
26478;SDS011;14163;-26.142;27.992;2024-02-15T08:43:22;13.23;;;11.90;;
26478;SDS011;14163;-26.142;27.992;2024-02-15T08:45:53;12.43;;;11.23;;
26478;SDS011;14163;-26.142;27.992;2024-02-15T08:48:23;17.33;;;13.47;;
26478;SDS011;14163;-26.142;27.992;2024-02-15T08:50:52;17.80;;;12.10;;
26478;SDS011;14163;-26.142;27.992;2024-02-15T08:53:21;38.23;;;22.03;;
26478;SDS011;14163;-26.142;27.992;2024-02-15T08:55:50;21.47;;;18.97;;
26478;SDS011;14163;-26.142;27.992;2024-02-15T08:58:20;35.50;;;28.83;;
26478;SDS011;14163;-26.142;27.992;2024-02-15T09:00:50;21.20;;;16.23;;
26478;SDS011;14163;-26.142;27.992;2024-02-15T09:03:20;14.20;;;12.03;;
26478;SDS011;14163;-26.142;27.992;2024-02-15T09:05:49;15.00;;;12.10;;
26478;SDS011;14163;-26.142;27.992;2024-02-15T09:08:18;14.00;;;12.60;;
26478;SDS011;14163;-26.142;27.992;2024-02-15T09:10:48;14.03;;;12.73;;
26478;SDS011;14163;-26.142;27.992;2024-02-15T09:13:18;19.13;;;16.63;;
26478;SDS011;14163;-26.142;27.992;2024-02-15T09:15:48;13.40;;;11.57;;
26478;SDS011;14163;-26.142;27.992;2024-02-15T09:18:19;14.17;;;12.73;;
26478;SDS011;14163;-26.142;27.992;2024-02-15T09:20:48;14.53;;;13.13;;
26478;SDS011;14163;-26.142;27.992;2024-02-15T09:23:21;14.87;;;13.37;;
26478;SDS011;14163;-26.142;27.992;2024-02-15T09:25:50;14.53;;;13.13;;
26478;SDS011;14163;-26.142;27.992;2024-02-15T09:28:20;18.83;;;12.90;;
26478;SDS011;14163;-26.142;27.992;2024-02-15T09:30:51;16.43;;;12.80;;
26478;SDS011;14163;-26.142;27.992;2024-02-15T09:33:25;19.17;;;14.17;;
26478;SDS011;14163;-26.142;27.992;2024-02-15T09:35:54;13.20;;;11.80;;
26478;SDS011;14163;-26.142;27.992;2024-02-15T09:38:23;15.07;;;12.47;;
26478;SDS011;14163;-26.142;27.992;2024-02-15T09:40:52;14.97;;;13.47;;
26478;SDS011;14163;-26.142;27.992;2024-02-15T09:43:22;16.03;;;13.07;;
26478;SDS011;14163;-26.142;27.992;2024-02-15T09:45:53;14.60;;;12.30;;
26478;SDS011;14163;-26.142;27.992;2024-02-15T09:48:23;20.23;;;13.00;;
26478;SDS011;14163;-26.142;27.992;2024-02-15T09:50:56;15.50;;;11.97;;
26478;SDS011;14163;-26.142;27.992;2024-02-15T09:53:27;15.80;;;12.20;;
26478;SDS011;14163;-26.142;27.992;2024-02-15T09:55:57;15.50;;;12.40;;
26478;SDS011;14163;-26.142;27.992;2024-02-15T09:58:30;13.40;;;12.20;;
26478;SDS011;14163;-26.142;27.992;2024-02-15T10:01:02;12.03;;;10.77;;
26478;SDS011;14163;-26.142;27.992;2024-02-15T10:03:35;13.47;;;12.17;;
26478;SDS011;14163;-26.142;27.992;2024-02-15T10:06:06;14.20;;;12.80;;
26478;SDS011;14163;-26.142;27.992;2024-02-15T10:08:35;13.80;;;12.60;;
26478;SDS011;14163;-26.142;27.992;2024-02-15T10:11:06;14.03;;;12.60;;
26478;SDS011;14163;-26.142;27.992;2024-02-15T10:13:35;14.20;;;12.30;;
26478;SDS011;14163;-26.142;27.992;2024-02-15T10:16:16;12.83;;;11.40;;
26478;SDS011;14163;-26.142;27.992;2024-02-15T10:18:50;14.33;;;11.70;;
26478;SDS011;14163;-26.142;27.992;2024-02-15T10:21:24;14.73;;;12.80;;
26478;SDS011;14163;-26.142;27.992;2024-02-15T10:26:46;14.90;;;13.40;;
26478;SDS011;14163;-26.142;27.992;2024-02-15T10:29:18;13.73;;;12.37;;
26478;SDS011;14163;-26.142;27.992;2024-02-15T10:31:56;14.07;;;11.77;;
26478;SDS011;14163;-26.142;27.992;2024-02-15T10:34:25;13.07;;;11.47;;
26478;SDS011;14163;-26.142;27.992;2024-02-15T10:36:54;13.63;;;11.77;;
26478;SDS011;14163;-26.142;27.992;2024-02-15T10:39:37;12.13;;;10.93;;
26478;SDS011;14163;-26.142;27.992;2024-02-15T10:42:06;12.47;;;11.37;;
26478;SDS011;14163;-26.142;27.992;2024-02-15T10:44:37;14.00;;;11.13;;
26478;SDS011;14163;-26.142;27.992;2024-02-15T10:47:08;11.83;;;10.83;;
26478;SDS011;14163;-26.142;27.992;2024-02-15T10:49:38;12.00;;;10.83;;
26478;SDS011;14163;-26.142;27.992;2024-02-15T10:52:07;13.53;;;9.90;;
26478;SDS011;14163;-26.142;27.992;2024-02-15T10:54:41;11.33;;;10.13;;
26478;SDS011;14163;-26.142;27.992;2024-02-15T10:57:14;11.60;;;10.40;;
26478;SDS011;14163;-26.142;27.992;2024-02-15T10:59:53;11.13;;;9.60;;
26478;SDS011;14163;-26.142;27.992;2024-02-15T11:02:29;11.93;;;10.13;;
26478;SDS011;14163;-26.142;27.992;2024-02-15T11:05:01;11.50;;;10.40;;
26478;SDS011;14163;-26.142;27.992;2024-02-15T11:07:34;11.23;;;10.03;;
26478;SDS011;14163;-26.142;27.992;2024-02-15T11:10:05;11.43;;;9.20;;
26478;SDS011;14163;-26.142;27.992;2024-02-15T11:12:36;12.87;;;9.50;;
26478;SDS011;14163;-26.142;27.992;2024-02-15T11:15:08;14.80;;;9.23;;
26478;SDS011;14163;-26.142;27.992;2024-02-15T11:17:47;10.67;;;9.73;;
26478;SDS011;14163;-26.142;27.992;2024-02-15T11:23:25;11.80;;;8.90;;
26478;SDS011;14163;-26.142;27.992;2024-02-15T11:25:54;10.93;;;9.67;;
26478;SDS011;14163;-26.142;27.992;2024-02-15T11:28:43;10.27;;;9.27;;
26478;SDS011;14163;-26.142;27.992;2024-02-15T11:40:24;10.03;;;9.13;;
26478;SDS011;14163;-26.142;27.992;2024-02-15T11:42:54;12.20;;;9.03;;
26478;SDS011;14163;-26.142;27.992;2024-02-15T11:45:25;11.37;;;9.13;;
26478;SDS011;14163;-26.142;27.992;2024-02-15T11:47:58;10.63;;;9.20;;
26478;SDS011;14163;-26.142;27.992;2024-02-15T11:50:33;12.03;;;8.77;;
26478;SDS011;14163;-26.142;27.992;2024-02-15T11:53:05;8.80;;;7.80;;
26478;SDS011;14163;-26.142;27.992;2024-02-15T11:55:36;8.23;;;7.23;;
26478;SDS011;14163;-26.142;27.992;2024-02-15T11:58:06;10.23;;;8.90;;
26478;SDS011;14163;-26.142;27.992;2024-02-15T12:00:47;11.33;;;8.93;;
26478;SDS011;14163;-26.142;27.992;2024-02-15T14:11:34;10.30;;;8.37;;
26478;SDS011;14163;-26.142;27.992;2024-02-15T14:14:03;10.27;;;8.63;;
26478;SDS011;14163;-26.142;27.992;2024-02-15T14:16:33;9.30;;;8.40;;
26478;SDS011;14163;-26.142;27.992;2024-02-15T14:19:02;9.67;;;8.73;;
26478;SDS011;14163;-26.142;27.992;2024-02-15T14:21:32;11.07;;;8.97;;
26478;SDS011;14163;-26.142;27.992;2024-02-15T14:24:05;13.63;;;8.07;;
26478;SDS011;14163;-26.142;27.992;2024-02-15T14:26:38;10.50;;;8.20;;
26478;SDS011;14163;-26.142;27.992;2024-02-15T14:29:07;9.87;;;8.83;;
26478;SDS011;14163;-26.142;27.992;2024-02-15T14:31:40;8.73;;;7.90;;
26478;SDS011;14163;-26.142;27.992;2024-02-15T14:34:26;9.20;;;8.33;;
26478;SDS011;14163;-26.142;27.992;2024-02-15T14:36:56;10.47;;;8.83;;
26478;SDS011;14163;-26.142;27.992;2024-02-15T14:39:26;9.47;;;8.30;;
26478;SDS011;14163;-26.142;27.992;2024-02-15T14:41:59;9.47;;;8.47;;
26478;SDS011;14163;-26.142;27.992;2024-02-15T14:44:28;9.67;;;8.70;;
26478;SDS011;14163;-26.142;27.992;2024-02-15T14:46:57;11.27;;;10.17;;
26478;SDS011;14163;-26.142;27.992;2024-02-15T14:49:27;9.50;;;8.57;;
26478;SDS011;14163;-26.142;27.992;2024-02-15T14:51:56;10.53;;;9.63;;
26478;SDS011;14163;-26.142;27.992;2024-02-15T14:54:27;12.40;;;9.40;;
26478;SDS011;14163;-26.142;27.992;2024-02-15T14:56:58;9.97;;;9.17;;
26478;SDS011;14163;-26.142;27.992;2024-02-15T14:59:27;18.33;;;16.50;;
26478;SDS011;14163;-26.142;27.992;2024-02-15T15:01:56;9.40;;;8.40;;
26478;SDS011;14163;-26.142;27.992;2024-02-15T15:04:34;8.53;;;7.83;;
26478;SDS011;14163;-26.142;27.992;2024-02-15T15:07:23;9.17;;;8.33;;
26478;SDS011;14163;-26.142;27.992;2024-02-15T15:10:10;13.87;;;9.00;;
26478;SDS011;14163;-26.142;27.992;2024-02-15T15:13:06;12.53;;;9.33;;
26478;SDS011;14163;-26.142;27.992;2024-02-15T15:15:36;9.70;;;8.10;;
26478;SDS011;14163;-26.142;27.992;2024-02-15T15:18:05;10.13;;;9.20;;
26478;SDS011;14163;-26.142;27.992;2024-02-15T15:20:36;9.97;;;8.90;;
26478;SDS011;14163;-26.142;27.992;2024-02-15T15:23:06;9.53;;;8.63;;
26478;SDS011;14163;-26.142;27.992;2024-02-15T15:25:36;9.17;;;8.17;;
26478;SDS011;14163;-26.142;27.992;2024-02-15T15:28:09;9.00;;;8.10;;
26478;SDS011;14163;-26.142;27.992;2024-02-15T15:30:39;8.63;;;7.83;;
26478;SDS011;14163;-26.142;27.992;2024-02-15T15:33:14;9.07;;;8.27;;
26478;SDS011;14163;-26.142;27.992;2024-02-15T15:35:43;9.33;;;8.43;;
26478;SDS011;14163;-26.142;27.992;2024-02-15T15:38:13;9.53;;;8.70;;
26478;SDS011;14163;-26.142;27.992;2024-02-15T15:40:42;9.80;;;7.67;;
26478;SDS011;14163;-26.142;27.992;2024-02-15T15:43:13;9.90;;;9.00;;
26478;SDS011;14163;-26.142;27.992;2024-02-15T15:45:42;13.17;;;8.53;;
26478;SDS011;14163;-26.142;27.992;2024-02-15T15:48:13;10.60;;;9.33;;
26478;SDS011;14163;-26.142;27.992;2024-02-15T15:50:45;10.00;;;9.10;;
26478;SDS011;14163;-26.142;27.992;2024-02-15T15:53:15;10.40;;;8.87;;
26478;SDS011;14163;-26.142;27.992;2024-02-15T15:55:44;9.73;;;9.03;;
26478;SDS011;14163;-26.142;27.992;2024-02-15T15:58:15;10.93;;;8.57;;
26478;SDS011;14163;-26.142;27.992;2024-02-15T16:00:47;10.40;;;9.67;;
26478;SDS011;14163;-26.142;27.992;2024-02-15T16:03:17;10.27;;;9.37;;
26478;SDS011;14163;-26.142;27.992;2024-02-15T16:05:48;10.73;;;9.70;;
26478;SDS011;14163;-26.142;27.992;2024-02-15T16:08:18;10.53;;;9.10;;
26478;SDS011;14163;-26.142;27.992;2024-02-15T16:10:47;11.00;;;8.70;;
26478;SDS011;14163;-26.142;27.992;2024-02-15T16:13:19;9.60;;;8.90;;
26478;SDS011;14163;-26.142;27.992;2024-02-15T16:15:51;10.87;;;9.80;;
26478;SDS011;14163;-26.142;27.992;2024-02-15T16:18:21;9.93;;;9.10;;
26478;SDS011;14163;-26.142;27.992;2024-02-15T16:20:50;9.67;;;8.77;;
26478;SDS011;14163;-26.142;27.992;2024-02-15T16:23:19;10.70;;;9.80;;
26478;SDS011;14163;-26.142;27.992;2024-02-15T16:25:49;10.30;;;9.30;;
26478;SDS011;14163;-26.142;27.992;2024-02-15T16:28:20;10.27;;;9.13;;
26478;SDS011;14163;-26.142;27.992;2024-02-15T16:30:49;11.67;;;10.77;;
26478;SDS011;14163;-26.142;27.992;2024-02-15T16:33:18;11.70;;;10.70;;
26478;SDS011;14163;-26.142;27.992;2024-02-15T16:35:47;11.60;;;10.50;;
26478;SDS011;14163;-26.142;27.992;2024-02-15T16:38:18;13.20;;;10.60;;
26478;SDS011;14163;-26.142;27.992;2024-02-15T16:40:47;11.03;;;10.00;;
26478;SDS011;14163;-26.142;27.992;2024-02-15T16:43:16;9.90;;;8.80;;
26478;SDS011;14163;-26.142;27.992;2024-02-15T16:45:47;11.53;;;10.40;;
26478;SDS011;14163;-26.142;27.992;2024-02-15T16:48:17;14.43;;;12.30;;
26478;SDS011;14163;-26.142;27.992;2024-02-15T16:50:46;12.83;;;10.70;;
26478;SDS011;14163;-26.142;27.992;2024-02-15T16:53:16;13.60;;;10.83;;
26478;SDS011;14163;-26.142;27.992;2024-02-15T16:55:45;11.47;;;10.30;;
26478;SDS011;14163;-26.142;27.992;2024-02-15T16:58:14;12.57;;;11.40;;
26478;SDS011;14163;-26.142;27.992;2024-02-15T17:00:47;13.00;;;11.70;;
26478;SDS011;14163;-26.142;27.992;2024-02-15T17:03:16;18.73;;;13.00;;
26478;SDS011;14163;-26.142;27.992;2024-02-15T17:05:46;12.40;;;11.20;;
26478;SDS011;14163;-26.142;27.992;2024-02-15T17:08:17;13.10;;;12.00;;
26478;SDS011;14163;-26.142;27.992;2024-02-15T17:10:47;15.47;;;14.07;;
26478;SDS011;14163;-26.142;27.992;2024-02-15T17:13:16;23.03;;;17.63;;
26478;SDS011;14163;-26.142;27.992;2024-02-15T17:15:47;17.43;;;15.27;;
26478;SDS011;14163;-26.142;27.992;2024-02-15T17:18:16;18.27;;;16.53;;
26478;SDS011;14163;-26.142;27.992;2024-02-15T17:20:48;14.83;;;13.47;;
26478;SDS011;14163;-26.142;27.992;2024-02-15T17:23:17;17.33;;;15.67;;
26478;SDS011;14163;-26.142;27.992;2024-02-15T17:25:49;15.47;;;14.07;;
26478;SDS011;14163;-26.142;27.992;2024-02-15T17:28:28;13.87;;;12.70;;
26478;SDS011;14163;-26.142;27.992;2024-02-15T17:31:04;19.50;;;17.40;;
26478;SDS011;14163;-26.142;27.992;2024-02-15T17:33:48;15.93;;;14.47;;
26478;SDS011;14163;-26.142;27.992;2024-02-15T17:36:17;16.00;;;13.27;;
26478;SDS011;14163;-26.142;27.992;2024-02-15T17:38:47;14.30;;;12.90;;
26478;SDS011;14163;-26.142;27.992;2024-02-15T17:41:16;15.87;;;13.67;;
26478;SDS011;14163;-26.142;27.992;2024-02-15T17:43:45;20.93;;;16.00;;
26478;SDS011;14163;-26.142;27.992;2024-02-15T17:46:18;18.20;;;16.13;;
26478;SDS011;14163;-26.142;27.992;2024-02-15T17:48:47;15.87;;;14.30;;
26478;SDS011;14163;-26.142;27.992;2024-02-15T17:51:22;17.87;;;16.10;;
26478;SDS011;14163;-26.142;27.992;2024-02-15T17:53:51;19.10;;;17.23;;
26478;SDS011;14163;-26.142;27.992;2024-02-15T17:56:21;24.97;;;20.37;;
26478;SDS011;14163;-26.142;27.992;2024-02-15T17:58:50;23.33;;;21.00;;
26478;SDS011;14163;-26.142;27.992;2024-02-15T18:01:23;39.10;;;28.10;;
26478;SDS011;14163;-26.142;27.992;2024-02-15T18:03:52;34.83;;;29.80;;
26478;SDS011;14163;-26.142;27.992;2024-02-15T18:09:03;41.77;;;37.27;;
26478;SDS011;14163;-26.142;27.992;2024-02-15T18:11:36;49.67;;;41.23;;
26478;SDS011;14163;-26.142;27.992;2024-02-15T18:14:05;49.33;;;43.20;;
26478;SDS011;14163;-26.142;27.992;2024-02-15T18:16:36;46.43;;;41.33;;
26478;SDS011;14163;-26.142;27.992;2024-02-15T18:19:05;43.03;;;37.33;;
26478;SDS011;14163;-26.142;27.992;2024-02-15T18:21:34;32.83;;;29.43;;
26478;SDS011;14163;-26.142;27.992;2024-02-15T18:24:04;33.37;;;28.27;;
26478;SDS011;14163;-26.142;27.992;2024-02-15T18:26:37;36.00;;;28.47;;
26478;SDS011;14163;-26.142;27.992;2024-02-15T18:29:06;26.00;;;23.17;;
26478;SDS011;14163;-26.142;27.992;2024-02-15T18:31:39;26.00;;;23.50;;
26478;SDS011;14163;-26.142;27.992;2024-02-15T18:34:09;21.20;;;18.90;;
26478;SDS011;14163;-26.142;27.992;2024-02-15T18:36:39;20.23;;;18.23;;
26478;SDS011;14163;-26.142;27.992;2024-02-15T18:39:09;19.60;;;17.67;;
26478;SDS011;14163;-26.142;27.992;2024-02-15T18:41:38;18.70;;;17.13;;
26478;SDS011;14163;-26.142;27.992;2024-02-15T18:44:11;22.07;;;18.97;;
26478;SDS011;14163;-26.142;27.992;2024-02-15T18:46:42;20.10;;;17.70;;
26478;SDS011;14163;-26.142;27.992;2024-02-15T18:49:12;16.80;;;15.10;;
26478;SDS011;14163;-26.142;27.992;2024-02-15T18:51:42;18.47;;;16.67;;
26478;SDS011;14163;-26.142;27.992;2024-02-15T18:54:11;24.50;;;17.30;;